Terminal Aerodrome Forecast
Issued by NWS Bismarck, ND

Home | Current Version | Previous Version | Graphics & Text | Print | Product List | Glossary On
Versions: 1 2 3 4 5 6 7 8 9 10 11 12 13
000
FTUS43 KBIS 202335
TAFISN
TAF
KISN 202335Z 2100/2124 09008KT P6SM SCT250
     FM210400 10004KT P6SM FEW200
     FM211400 27004KT P6SM SCT200
     FM211700 32009KT P6SM SCT200
     FM212000 33013KT P6SM BKN110=

USA.gov is the U.S. government's official web portal to all federal, state and local government web resources and services.